Mount Holly, Arkansas
Current Conditions -  °F | °C
As of 5:53 AM on Monday 24 Nov 2014 (Local Time) from KELD Reporting Station
Clear Clear  
Wind Chill: 43°   Ceiling: Unl
Heat Index: 48°   Visibility: 10mi
Dew Point: 39°   Wind: 10mph
Humidity: 71%   Direction: 290°WNW
Pressure: 29.85"   Gusts: NA
Location:  33.3°N, 92.96°W
Report Text: KELD 241153Z AUTO 29009KT 10SM CLR 09/04 A2985 RMK AO2 SLP107 70035 T00890039 10150 20089 51038
Loading
Personal Weather Stations






























Interactive Weather Map New forecast layout! Learn more

10-Day Weather Forecast

Advertisements
Track Severe Weather on mobile